sensor_id;sensor_type;location;lat;lon;timestamp;temperature;humidity
15113;DHT22;7657;50.140;7.076;2024-01-06T00:00:33;5.50;99.90
15113;DHT22;7657;50.140;7.076;2024-01-06T00:02:59;5.60;99.90
15113;DHT22;7657;50.140;7.076;2024-01-06T00:05:26;5.70;99.90
15113;DHT22;7657;50.140;7.076;2024-01-06T00:07:53;5.70;99.90
15113;DHT22;7657;50.140;7.076;2024-01-06T00:10:20;5.70;99.90
15113;DHT22;7657;50.140;7.076;2024-01-06T00:12:46;5.80;99.90
15113;DHT22;7657;50.140;7.076;2024-01-06T00:15:14;5.80;99.90
15113;DHT22;7657;50.140;7.076;2024-01-06T00:17:42;5.80;99.90
15113;DHT22;7657;50.140;7.076;2024-01-06T00:20:10;5.90;99.90
15113;DHT22;7657;50.140;7.076;2024-01-06T00:22:37;6.00;99.90
15113;DHT22;7657;50.140;7.076;2024-01-06T00:25:04;6.00;99.90
15113;DHT22;7657;50.140;7.076;2024-01-06T00:27:31;6.00;99.90
15113;DHT22;7657;50.140;7.076;2024-01-06T00:29:58;6.10;99.90
15113;DHT22;7657;50.140;7.076;2024-01-06T00:32:25;6.10;99.90
15113;DHT22;7657;50.140;7.076;2024-01-06T00:34:54;6.10;99.90
15113;DHT22;7657;50.140;7.076;2024-01-06T00:37:21;6.10;99.90
15113;DHT22;7657;50.140;7.076;2024-01-06T00:39:48;5.90;99.90
15113;DHT22;7657;50.140;7.076;2024-01-06T00:42:15;5.80;99.90
15113;DHT22;7657;50.140;7.076;2024-01-06T00:44:41;5.80;99.90
15113;DHT22;7657;50.140;7.076;2024-01-06T00:47:10;5.80;99.90
15113;DHT22;7657;50.140;7.076;2024-01-06T00:49:37;5.70;99.90
15113;DHT22;7657;50.140;7.076;2024-01-06T00:52:06;5.70;99.90
15113;DHT22;7657;50.140;7.076;2024-01-06T00:54:33;5.70;99.90
15113;DHT22;7657;50.140;7.076;2024-01-06T00:56:59;5.70;99.90
15113;DHT22;7657;50.140;7.076;2024-01-06T00:59:26;5.60;99.90
15113;DHT22;7657;50.140;7.076;2024-01-06T01:01:53;5.40;99.90
15113;DHT22;7657;50.140;7.076;2024-01-06T01:04:20;5.40;99.90
15113;DHT22;7657;50.140;7.076;2024-01-06T01:06:47;5.40;99.90
15113;DHT22;7657;50.140;7.076;2024-01-06T01:09:15;5.20;99.90
15113;DHT22;7657;50.140;7.076;2024-01-06T01:11:42;5.20;99.90
15113;DHT22;7657;50.140;7.076;2024-01-06T01:14:09;5.30;99.90
15113;DHT22;7657;50.140;7.076;2024-01-06T01:16:36;5.40;99.90
15113;DHT22;7657;50.140;7.076;2024-01-06T01:19:03;5.30;99.90
15113;DHT22;7657;50.140;7.076;2024-01-06T01:21:30;5.40;99.90
15113;DHT22;7657;50.140;7.076;2024-01-06T01:23:57;5.30;99.90
15113;DHT22;7657;50.140;7.076;2024-01-06T01:26:25;5.30;99.90
15113;DHT22;7657;50.140;7.076;2024-01-06T01:28:52;5.40;99.90
15113;DHT22;7657;50.140;7.076;2024-01-06T01:31:19;5.30;99.90
15113;DHT22;7657;50.140;7.076;2024-01-06T01:33:46;5.30;99.90
15113;DHT22;7657;50.140;7.076;2024-01-06T01:36:13;5.30;99.90
15113;DHT22;7657;50.140;7.076;2024-01-06T01:38:40;5.30;99.90
15113;DHT22;7657;50.140;7.076;2024-01-06T01:41:07;5.20;99.90
15113;DHT22;7657;50.140;7.076;2024-01-06T01:43:35;5.20;99.90
15113;DHT22;7657;50.140;7.076;2024-01-06T01:46:02;5.20;99.90
15113;DHT22;7657;50.140;7.076;2024-01-06T01:48:29;5.30;99.90
15113;DHT22;7657;50.140;7.076;2024-01-06T01:50:56;5.30;99.90
15113;DHT22;7657;50.140;7.076;2024-01-06T01:53:23;5.30;99.90
15113;DHT22;7657;50.140;7.076;2024-01-06T01:55:52;5.20;99.90
15113;DHT22;7657;50.140;7.076;2024-01-06T01:58:19;5.30;99.90
15113;DHT22;7657;50.140;7.076;2024-01-06T02:00:47;5.30;99.90
15113;DHT22;7657;50.140;7.076;2024-01-06T02:03:15;5.30;99.90
15113;DHT22;7657;50.140;7.076;2024-01-06T02:05:42;5.40;99.90
15113;DHT22;7657;50.140;7.076;2024-01-06T02:08:09;5.40;99.90
15113;DHT22;7657;50.140;7.076;2024-01-06T02:10:36;5.30;99.90
15113;DHT22;7657;50.140;7.076;2024-01-06T02:13:10;5.40;99.90
15113;DHT22;7657;50.140;7.076;2024-01-06T02:15:37;5.40;99.90
15113;DHT22;7657;50.140;7.076;2024-01-06T02:18:06;5.40;99.90
15113;DHT22;7657;50.140;7.076;2024-01-06T02:20:33;5.40;99.90
15113;DHT22;7657;50.140;7.076;2024-01-06T02:23:01;5.50;99.90
15113;DHT22;7657;50.140;7.076;2024-01-06T02:25:28;5.40;99.90
15113;DHT22;7657;50.140;7.076;2024-01-06T02:27:55;5.50;99.90
15113;DHT22;7657;50.140;7.076;2024-01-06T02:30:22;5.60;99.90
15113;DHT22;7657;50.140;7.076;2024-01-06T02:32:49;5.80;99.90
15113;DHT22;7657;50.140;7.076;2024-01-06T02:35:16;5.90;99.90
15113;DHT22;7657;50.140;7.076;2024-01-06T02:37:43;5.80;99.90
15113;DHT22;7657;50.140;7.076;2024-01-06T02:40:13;5.90;99.90
15113;DHT22;7657;50.140;7.076;2024-01-06T02:42:40;5.80;99.90
15113;DHT22;7657;50.140;7.076;2024-01-06T02:45:08;5.90;99.90
15113;DHT22;7657;50.140;7.076;2024-01-06T02:47:35;5.90;99.90
15113;DHT22;7657;50.140;7.076;2024-01-06T02:50:02;5.70;99.90
15113;DHT22;7657;50.140;7.076;2024-01-06T02:52:28;5.70;99.90
15113;DHT22;7657;50.140;7.076;2024-01-06T02:54:55;5.70;99.90
15113;DHT22;7657;50.140;7.076;2024-01-06T02:57:24;5.70;99.90
15113;DHT22;7657;50.140;7.076;2024-01-06T02:59:50;5.60;99.90
15113;DHT22;7657;50.140;7.076;2024-01-06T03:02:17;5.70;99.90
15113;DHT22;7657;50.140;7.076;2024-01-06T03:04:44;5.70;99.90
15113;DHT22;7657;50.140;7.076;2024-01-06T03:07:11;5.60;99.90
15113;DHT22;7657;50.140;7.076;2024-01-06T03:09:38;5.70;99.90
15113;DHT22;7657;50.140;7.076;2024-01-06T03:12:06;5.80;99.90
15113;DHT22;7657;50.140;7.076;2024-01-06T03:14:34;5.90;99.90
15113;DHT22;7657;50.140;7.076;2024-01-06T03:17:01;5.80;99.90
15113;DHT22;7657;50.140;7.076;2024-01-06T03:19:28;5.90;99.90
15113;DHT22;7657;50.140;7.076;2024-01-06T03:21:55;5.80;99.90
15113;DHT22;7657;50.140;7.076;2024-01-06T03:24:23;5.70;99.90
15113;DHT22;7657;50.140;7.076;2024-01-06T03:26:50;5.70;99.90
15113;DHT22;7657;50.140;7.076;2024-01-06T03:29:17;5.60;99.90
15113;DHT22;7657;50.140;7.076;2024-01-06T03:31:45;5.50;99.90
15113;DHT22;7657;50.140;7.076;2024-01-06T03:34:12;5.50;99.90
15113;DHT22;7657;50.140;7.076;2024-01-06T03:36:39;5.40;99.90
15113;DHT22;7657;50.140;7.076;2024-01-06T03:39:07;5.50;99.90
15113;DHT22;7657;50.140;7.076;2024-01-06T03:41:34;5.60;99.90
15113;DHT22;7657;50.140;7.076;2024-01-06T03:44:00;5.60;99.90
15113;DHT22;7657;50.140;7.076;2024-01-06T03:46:27;5.60;99.90
15113;DHT22;7657;50.140;7.076;2024-01-06T03:48:56;5.60;99.90
15113;DHT22;7657;50.140;7.076;2024-01-06T03:51:23;5.60;99.90
15113;DHT22;7657;50.140;7.076;2024-01-06T03:53:49;5.70;99.90
15113;DHT22;7657;50.140;7.076;2024-01-06T03:56:16;5.70;99.90
15113;DHT22;7657;50.140;7.076;2024-01-06T03:58:43;5.80;99.90
15113;DHT22;7657;50.140;7.076;2024-01-06T04:01:10;5.70;99.90
15113;DHT22;7657;50.140;7.076;2024-01-06T04:03:38;5.90;99.90
15113;DHT22;7657;50.140;7.076;2024-01-06T04:06:07;6.00;99.90
15113;DHT22;7657;50.140;7.076;2024-01-06T04:08:35;6.00;99.90
15113;DHT22;7657;50.140;7.076;2024-01-06T04:11:02;6.10;99.90
15113;DHT22;7657;50.140;7.076;2024-01-06T04:13:29;6.20;99.90
15113;DHT22;7657;50.140;7.076;2024-01-06T04:15:55;6.20;99.90
15113;DHT22;7657;50.140;7.076;2024-01-06T04:18:22;6.20;99.90
15113;DHT22;7657;50.140;7.076;2024-01-06T04:20:49;6.20;99.90
15113;DHT22;7657;50.140;7.076;2024-01-06T04:23:18;6.30;99.90
15113;DHT22;7657;50.140;7.076;2024-01-06T04:25:45;6.40;99.90
15113;DHT22;7657;50.140;7.076;2024-01-06T04:28:12;6.40;99.90
15113;DHT22;7657;50.140;7.076;2024-01-06T04:30:39;6.40;99.90
15113;DHT22;7657;50.140;7.076;2024-01-06T04:33:06;6.50;99.90
15113;DHT22;7657;50.140;7.076;2024-01-06T04:35:33;6.50;99.90
15113;DHT22;7657;50.140;7.076;2024-01-06T04:38:00;6.60;99.90
15113;DHT22;7657;50.140;7.076;2024-01-06T04:40:28;6.70;99.90
15113;DHT22;7657;50.140;7.076;2024-01-06T04:42:55;6.70;99.90
15113;DHT22;7657;50.140;7.076;2024-01-06T04:45:22;6.80;99.90
15113;DHT22;7657;50.140;7.076;2024-01-06T04:47:50;6.70;99.90
15113;DHT22;7657;50.140;7.076;2024-01-06T04:50:17;6.70;99.90
15113;DHT22;7657;50.140;7.076;2024-01-06T04:52:44;6.80;99.90
15113;DHT22;7657;50.140;7.076;2024-01-06T04:55:11;6.80;99.90
15113;DHT22;7657;50.140;7.076;2024-01-06T04:57:39;6.70;99.90
15113;DHT22;7657;50.140;7.076;2024-01-06T05:00:07;6.70;99.90
15113;DHT22;7657;50.140;7.076;2024-01-06T05:02:34;6.70;99.90
15113;DHT22;7657;50.140;7.076;2024-01-06T05:05:00;6.60;99.90
15113;DHT22;7657;50.140;7.076;2024-01-06T05:07:27;6.50;99.90
15113;DHT22;7657;50.140;7.076;2024-01-06T05:09:54;6.40;99.90
15113;DHT22;7657;50.140;7.076;2024-01-06T05:12:21;6.20;99.90
15113;DHT22;7657;50.140;7.076;2024-01-06T05:14:49;6.10;99.90
15113;DHT22;7657;50.140;7.076;2024-01-06T05:17:16;6.00;99.90
15113;DHT22;7657;50.140;7.076;2024-01-06T05:19:43;6.10;99.90
15113;DHT22;7657;50.140;7.076;2024-01-06T05:22:10;6.00;99.90
15113;DHT22;7657;50.140;7.076;2024-01-06T05:24:37;6.00;99.90
15113;DHT22;7657;50.140;7.076;2024-01-06T05:27:04;6.00;99.90
15113;DHT22;7657;50.140;7.076;2024-01-06T05:29:31;6.00;99.90
15113;DHT22;7657;50.140;7.076;2024-01-06T05:31:59;6.10;99.90
15113;DHT22;7657;50.140;7.076;2024-01-06T05:34:26;6.10;99.90
15113;DHT22;7657;50.140;7.076;2024-01-06T05:36:53;6.30;99.90
15113;DHT22;7657;50.140;7.076;2024-01-06T05:39:20;6.40;99.90
15113;DHT22;7657;50.140;7.076;2024-01-06T05:41:47;6.50;99.90
15113;DHT22;7657;50.140;7.076;2024-01-06T05:44:14;6.60;99.90
15113;DHT22;7657;50.140;7.076;2024-01-06T05:46:40;6.60;99.90
15113;DHT22;7657;50.140;7.076;2024-01-06T05:49:09;6.60;99.90
15113;DHT22;7657;50.140;7.076;2024-01-06T05:51:36;6.70;99.90
15113;DHT22;7657;50.140;7.076;2024-01-06T05:54:03;6.60;99.90
15113;DHT22;7657;50.140;7.076;2024-01-06T05:56:30;6.70;99.90
15113;DHT22;7657;50.140;7.076;2024-01-06T05:58:56;6.70;99.90
15113;DHT22;7657;50.140;7.076;2024-01-06T06:01:23;6.80;99.90
15113;DHT22;7657;50.140;7.076;2024-01-06T06:03:50;6.80;99.90
15113;DHT22;7657;50.140;7.076;2024-01-06T06:06:19;6.90;99.90
15113;DHT22;7657;50.140;7.076;2024-01-06T06:08:46;6.90;99.90
15113;DHT22;7657;50.140;7.076;2024-01-06T06:11:14;6.90;99.90
15113;DHT22;7657;50.140;7.076;2024-01-06T06:13:41;7.00;99.90
15113;DHT22;7657;50.140;7.076;2024-01-06T06:16:09;6.80;99.90
15113;DHT22;7657;50.140;7.076;2024-01-06T06:18:37;6.70;99.90
15113;DHT22;7657;50.140;7.076;2024-01-06T06:21:05;6.70;99.90
15113;DHT22;7657;50.140;7.076;2024-01-06T06:23:33;6.70;99.90
15113;DHT22;7657;50.140;7.076;2024-01-06T06:26:04;6.60;99.90
15113;DHT22;7657;50.140;7.076;2024-01-06T06:28:31;6.60;99.90
15113;DHT22;7657;50.140;7.076;2024-01-06T06:30:59;6.40;99.90
15113;DHT22;7657;50.140;7.076;2024-01-06T06:33:26;6.40;99.90
15113;DHT22;7657;50.140;7.076;2024-01-06T06:35:53;6.40;99.90
15113;DHT22;7657;50.140;7.076;2024-01-06T06:38:19;6.40;99.90
15113;DHT22;7657;50.140;7.076;2024-01-06T06:40:48;6.50;99.90
15113;DHT22;7657;50.140;7.076;2024-01-06T06:43:15;6.50;99.90
15113;DHT22;7657;50.140;7.076;2024-01-06T06:45:42;6.70;99.90
15113;DHT22;7657;50.140;7.076;2024-01-06T06:48:08;6.80;99.90
15113;DHT22;7657;50.140;7.076;2024-01-06T06:50:35;6.60;99.90
15113;DHT22;7657;50.140;7.076;2024-01-06T06:53:02;6.60;99.90
15113;DHT22;7657;50.140;7.076;2024-01-06T06:55:29;6.50;99.90
15113;DHT22;7657;50.140;7.076;2024-01-06T06:57:57;6.60;99.90
15113;DHT22;7657;50.140;7.076;2024-01-06T07:00:24;6.60;99.90
15113;DHT22;7657;50.140;7.076;2024-01-06T07:02:51;6.50;99.90
15113;DHT22;7657;50.140;7.076;2024-01-06T07:05:18;6.50;99.90
15113;DHT22;7657;50.140;7.076;2024-01-06T07:07:45;6.50;99.90
15113;DHT22;7657;50.140;7.076;2024-01-06T07:10:12;6.50;99.90
15113;DHT22;7657;50.140;7.076;2024-01-06T07:12:39;6.40;99.90
15113;DHT22;7657;50.140;7.076;2024-01-06T07:15:08;6.50;99.90
15113;DHT22;7657;50.140;7.076;2024-01-06T07:17:37;6.40;99.90
15113;DHT22;7657;50.140;7.076;2024-01-06T07:20:04;6.40;99.90
15113;DHT22;7657;50.140;7.076;2024-01-06T07:22:32;6.50;99.90
15113;DHT22;7657;50.140;7.076;2024-01-06T07:25:00;6.40;99.90
15113;DHT22;7657;50.140;7.076;2024-01-06T07:27:27;6.40;99.90
15113;DHT22;7657;50.140;7.076;2024-01-06T07:29:53;6.40;99.90
15113;DHT22;7657;50.140;7.076;2024-01-06T07:32:23;6.30;99.90
15113;DHT22;7657;50.140;7.076;2024-01-06T07:34:50;6.40;99.90
15113;DHT22;7657;50.140;7.076;2024-01-06T07:37:17;6.40;99.90
15113;DHT22;7657;50.140;7.076;2024-01-06T07:39:44;6.40;99.90
15113;DHT22;7657;50.140;7.076;2024-01-06T07:42:10;6.40;99.90
15113;DHT22;7657;50.140;7.076;2024-01-06T07:44:38;6.40;99.90
15113;DHT22;7657;50.140;7.076;2024-01-06T07:47:04;6.40;99.90
15113;DHT22;7657;50.140;7.076;2024-01-06T07:49:32;6.40;99.90
15113;DHT22;7657;50.140;7.076;2024-01-06T07:51:59;6.50;99.90
15113;DHT22;7657;50.140;7.076;2024-01-06T07:54:26;6.60;99.90
15113;DHT22;7657;50.140;7.076;2024-01-06T07:56:53;6.70;99.90
15113;DHT22;7657;50.140;7.076;2024-01-06T07:59:21;6.80;99.90
15113;DHT22;7657;50.140;7.076;2024-01-06T08:01:47;6.80;99.90
15113;DHT22;7657;50.140;7.076;2024-01-06T08:04:14;6.80;99.90
15113;DHT22;7657;50.140;7.076;2024-01-06T08:06:42;6.80;99.90
15113;DHT22;7657;50.140;7.076;2024-01-06T08:09:09;6.80;99.90
15113;DHT22;7657;50.140;7.076;2024-01-06T08:11:36;6.90;99.90
15113;DHT22;7657;50.140;7.076;2024-01-06T08:14:04;6.90;99.90
15113;DHT22;7657;50.140;7.076;2024-01-06T08:16:31;7.00;99.90
15113;DHT22;7657;50.140;7.076;2024-01-06T08:18:58;6.90;99.90
15113;DHT22;7657;50.140;7.076;2024-01-06T08:21:25;6.80;99.90
15113;DHT22;7657;50.140;7.076;2024-01-06T08:23:53;6.90;99.90
15113;DHT22;7657;50.140;7.076;2024-01-06T08:26:21;6.90;99.90
15113;DHT22;7657;50.140;7.076;2024-01-06T08:28:48;6.90;99.90
15113;DHT22;7657;50.140;7.076;2024-01-06T08:31:15;7.00;99.90
15113;DHT22;7657;50.140;7.076;2024-01-06T08:33:42;6.90;99.90
15113;DHT22;7657;50.140;7.076;2024-01-06T08:36:09;6.90;99.90
15113;DHT22;7657;50.140;7.076;2024-01-06T08:38:36;6.90;99.90
15113;DHT22;7657;50.140;7.076;2024-01-06T08:41:04;6.90;99.90
15113;DHT22;7657;50.140;7.076;2024-01-06T08:43:31;6.80;99.90
15113;DHT22;7657;50.140;7.076;2024-01-06T08:45:58;6.90;99.90
15113;DHT22;7657;50.140;7.076;2024-01-06T08:48:26;6.90;99.90
15113;DHT22;7657;50.140;7.076;2024-01-06T08:50:53;6.90;99.90
15113;DHT22;7657;50.140;7.076;2024-01-06T08:53:19;6.90;99.90
15113;DHT22;7657;50.140;7.076;2024-01-06T08:55:46;7.00;99.90
15113;DHT22;7657;50.140;7.076;2024-01-06T08:58:14;7.00;99.90
15113;DHT22;7657;50.140;7.076;2024-01-06T09:00:44;7.10;99.90
15113;DHT22;7657;50.140;7.076;2024-01-06T09:03:11;7.10;99.90
15113;DHT22;7657;50.140;7.076;2024-01-06T09:05:39;7.00;99.90
15113;DHT22;7657;50.140;7.076;2024-01-06T09:08:06;7.00;99.90
15113;DHT22;7657;50.140;7.076;2024-01-06T09:10:33;7.00;99.90
15113;DHT22;7657;50.140;7.076;2024-01-06T09:13:00;7.10;99.90
15113;DHT22;7657;50.140;7.076;2024-01-06T09:15:29;7.10;99.90
15113;DHT22;7657;50.140;7.076;2024-01-06T09:17:56;7.10;99.90
15113;DHT22;7657;50.140;7.076;2024-01-06T09:20:22;7.00;99.90
15113;DHT22;7657;50.140;7.076;2024-01-06T09:22:49;7.20;99.90
15113;DHT22;7657;50.140;7.076;2024-01-06T09:25:17;7.10;99.90
15113;DHT22;7657;50.140;7.076;2024-01-06T09:27:44;7.20;99.90
15113;DHT22;7657;50.140;7.076;2024-01-06T09:30:11;7.10;99.90
15113;DHT22;7657;50.140;7.076;2024-01-06T09:32:39;7.20;99.90
15113;DHT22;7657;50.140;7.076;2024-01-06T09:35:07;7.30;99.90
15113;DHT22;7657;50.140;7.076;2024-01-06T09:37:34;7.30;99.90
15113;DHT22;7657;50.140;7.076;2024-01-06T09:40:00;7.30;99.90
15113;DHT22;7657;50.140;7.076;2024-01-06T09:42:27;7.20;99.90
15113;DHT22;7657;50.140;7.076;2024-01-06T09:44:54;7.20;99.90
15113;DHT22;7657;50.140;7.076;2024-01-06T09:47:22;7.30;99.90
15113;DHT22;7657;50.140;7.076;2024-01-06T09:49:51;7.30;99.90
15113;DHT22;7657;50.140;7.076;2024-01-06T09:52:21;7.30;99.90
15113;DHT22;7657;50.140;7.076;2024-01-06T09:54:51;7.20;99.90
15113;DHT22;7657;50.140;7.076;2024-01-06T09:57:20;7.30;99.90
15113;DHT22;7657;50.140;7.076;2024-01-06T09:59:47;7.30;99.90
15113;DHT22;7657;50.140;7.076;2024-01-06T10:02:15;7.20;99.90
15113;DHT22;7657;50.140;7.076;2024-01-06T10:04:42;7.20;99.90
15113;DHT22;7657;50.140;7.076;2024-01-06T10:07:11;7.20;99.90
15113;DHT22;7657;50.140;7.076;2024-01-06T10:09:40;7.30;99.90
15113;DHT22;7657;50.140;7.076;2024-01-06T10:12:07;7.30;99.90
15113;DHT22;7657;50.140;7.076;2024-01-06T10:14:35;7.30;99.90
15113;DHT22;7657;50.140;7.076;2024-01-06T10:17:05;7.30;99.90
15113;DHT22;7657;50.140;7.076;2024-01-06T10:19:32;7.10;99.90
15113;DHT22;7657;50.140;7.076;2024-01-06T10:21:59;7.20;99.90
15113;DHT22;7657;50.140;7.076;2024-01-06T10:24:29;6.90;99.90
15113;DHT22;7657;50.140;7.076;2024-01-06T10:26:57;6.80;99.90
15113;DHT22;7657;50.140;7.076;2024-01-06T10:29:25;6.90;99.90
15113;DHT22;7657;50.140;7.076;2024-01-06T10:31:53;7.10;99.90
15113;DHT22;7657;50.140;7.076;2024-01-06T10:34:20;7.20;99.90
15113;DHT22;7657;50.140;7.076;2024-01-06T10:36:48;7.20;99.90
15113;DHT22;7657;50.140;7.076;2024-01-06T10:39:18;7.30;99.90
15113;DHT22;7657;50.140;7.076;2024-01-06T10:41:48;7.40;99.90
15113;DHT22;7657;50.140;7.076;2024-01-06T10:44:15;7.50;99.90
15113;DHT22;7657;50.140;7.076;2024-01-06T10:46:44;7.50;99.90
15113;DHT22;7657;50.140;7.076;2024-01-06T10:49:11;7.40;99.90
15113;DHT22;7657;50.140;7.076;2024-01-06T10:51:39;7.40;99.90
15113;DHT22;7657;50.140;7.076;2024-01-06T10:54:06;7.20;99.90
15113;DHT22;7657;50.140;7.076;2024-01-06T10:56:37;7.10;99.90
15113;DHT22;7657;50.140;7.076;2024-01-06T10:59:05;7.00;99.90
15113;DHT22;7657;50.140;7.076;2024-01-06T11:01:33;7.00;99.90
15113;DHT22;7657;50.140;7.076;2024-01-06T11:04:02;7.10;99.90
15113;DHT22;7657;50.140;7.076;2024-01-06T11:06:31;7.10;99.90
15113;DHT22;7657;50.140;7.076;2024-01-06T11:09:04;7.10;99.90
15113;DHT22;7657;50.140;7.076;2024-01-06T11:11:33;7.20;99.90
15113;DHT22;7657;50.140;7.076;2024-01-06T11:14:23;7.40;99.90
15113;DHT22;7657;50.140;7.076;2024-01-06T11:16:51;7.50;99.90
15113;DHT22;7657;50.140;7.076;2024-01-06T11:19:43;7.60;99.90
15113;DHT22;7657;50.140;7.076;2024-01-06T11:22:34;7.60;99.90
15113;DHT22;7657;50.140;7.076;2024-01-06T11:25:07;7.60;99.90
15113;DHT22;7657;50.140;7.076;2024-01-06T11:27:34;7.50;99.90
15113;DHT22;7657;50.140;7.076;2024-01-06T11:30:04;7.30;99.90
15113;DHT22;7657;50.140;7.076;2024-01-06T11:32:33;7.20;99.90
15113;DHT22;7657;50.140;7.076;2024-01-06T11:35:06;7.20;99.90
15113;DHT22;7657;50.140;7.076;2024-01-06T11:37:51;7.20;99.90
15113;DHT22;7657;50.140;7.076;2024-01-06T11:40:23;7.30;99.90
15113;DHT22;7657;50.140;7.076;2024-01-06T11:42:57;7.30;99.90
15113;DHT22;7657;50.140;7.076;2024-01-06T11:45:26;7.30;99.90
15113;DHT22;7657;50.140;7.076;2024-01-06T11:47:56;7.30;99.90
15113;DHT22;7657;50.140;7.076;2024-01-06T11:50:24;7.30;99.90
15113;DHT22;7657;50.140;7.076;2024-01-06T11:52:51;7.20;99.90
15113;DHT22;7657;50.140;7.076;2024-01-06T11:55:19;7.20;99.90
15113;DHT22;7657;50.140;7.076;2024-01-06T11:57:47;7.00;99.90
15113;DHT22;7657;50.140;7.076;2024-01-06T12:00:15;6.90;99.90
15113;DHT22;7657;50.140;7.076;2024-01-06T12:02:44;6.90;99.90
15113;DHT22;7657;50.140;7.076;2024-01-06T12:05:15;7.00;99.90
15113;DHT22;7657;50.140;7.076;2024-01-06T12:07:43;7.10;99.90
15113;DHT22;7657;50.140;7.076;2024-01-06T12:10:11;7.00;99.90
15113;DHT22;7657;50.140;7.076;2024-01-06T12:12:39;7.10;99.90
15113;DHT22;7657;50.140;7.076;2024-01-06T12:15:07;6.80;99.90
15113;DHT22;7657;50.140;7.076;2024-01-06T12:17:35;6.70;99.90
15113;DHT22;7657;50.140;7.076;2024-01-06T12:20:04;6.80;99.90
15113;DHT22;7657;50.140;7.076;2024-01-06T12:22:34;6.90;99.90
15113;DHT22;7657;50.140;7.076;2024-01-06T12:25:02;6.90;99.90
15113;DHT22;7657;50.140;7.076;2024-01-06T12:27:32;6.90;99.90
15113;DHT22;7657;50.140;7.076;2024-01-06T12:29:59;6.80;99.90
15113;DHT22;7657;50.140;7.076;2024-01-06T12:32:26;6.90;99.90
15113;DHT22;7657;50.140;7.076;2024-01-06T12:34:53;6.80;99.90
15113;DHT22;7657;50.140;7.076;2024-01-06T12:37:23;6.70;99.90
15113;DHT22;7657;50.140;7.076;2024-01-06T12:39:50;6.60;99.90
15113;DHT22;7657;50.140;7.076;2024-01-06T12:42:17;6.70;99.90
15113;DHT22;7657;50.140;7.076;2024-01-06T12:44:45;6.60;99.90
15113;DHT22;7657;50.140;7.076;2024-01-06T12:47:12;6.70;99.90
15113;DHT22;7657;50.140;7.076;2024-01-06T12:49:39;6.60;99.90
15113;DHT22;7657;50.140;7.076;2024-01-06T12:52:06;6.70;99.90
15113;DHT22;7657;50.140;7.076;2024-01-06T12:54:34;6.80;99.90
15113;DHT22;7657;50.140;7.076;2024-01-06T12:57:01;6.90;99.90
15113;DHT22;7657;50.140;7.076;2024-01-06T12:59:28;7.00;99.90
15113;DHT22;7657;50.140;7.076;2024-01-06T13:01:56;6.80;99.90
15113;DHT22;7657;50.140;7.076;2024-01-06T13:04:23;6.90;99.90
15113;DHT22;7657;50.140;7.076;2024-01-06T13:06:50;6.80;99.90
15113;DHT22;7657;50.140;7.076;2024-01-06T13:09:17;6.80;99.90
15113;DHT22;7657;50.140;7.076;2024-01-06T13:11:45;6.90;99.90
15113;DHT22;7657;50.140;7.076;2024-01-06T13:14:13;6.90;99.90
15113;DHT22;7657;50.140;7.076;2024-01-06T13:16:40;6.90;99.90
15113;DHT22;7657;50.140;7.076;2024-01-06T13:19:06;6.80;99.90
15113;DHT22;7657;50.140;7.076;2024-01-06T13:21:33;6.70;99.90
15113;DHT22;7657;50.140;7.076;2024-01-06T13:24:01;6.80;99.90
15113;DHT22;7657;50.140;7.076;2024-01-06T13:26:30;6.90;99.90
15113;DHT22;7657;50.140;7.076;2024-01-06T13:28:59;6.70;99.90
15113;DHT22;7657;50.140;7.076;2024-01-06T13:31:27;6.60;99.90
15113;DHT22;7657;50.140;7.076;2024-01-06T13:33:54;6.70;99.90
15113;DHT22;7657;50.140;7.076;2024-01-06T13:36:21;6.60;99.90
15113;DHT22;7657;50.140;7.076;2024-01-06T13:38:48;6.50;99.90
15113;DHT22;7657;50.140;7.076;2024-01-06T13:41:15;6.40;99.90
15113;DHT22;7657;50.140;7.076;2024-01-06T13:43:42;6.50;99.90
15113;DHT22;7657;50.140;7.076;2024-01-06T13:46:10;6.50;99.90
15113;DHT22;7657;50.140;7.076;2024-01-06T13:48:39;6.50;99.90
15113;DHT22;7657;50.140;7.076;2024-01-06T13:51:06;6.50;99.90
15113;DHT22;7657;50.140;7.076;2024-01-06T13:53:33;6.60;99.90
15113;DHT22;7657;50.140;7.076;2024-01-06T13:56:00;6.60;99.90
15113;DHT22;7657;50.140;7.076;2024-01-06T13:58:28;6.60;99.90
15113;DHT22;7657;50.140;7.076;2024-01-06T14:00:58;6.50;99.90
15113;DHT22;7657;50.140;7.076;2024-01-06T14:03:27;6.30;99.90
15113;DHT22;7657;50.140;7.076;2024-01-06T14:05:54;6.30;99.90
15113;DHT22;7657;50.140;7.076;2024-01-06T14:08:20;6.40;99.90
15113;DHT22;7657;50.140;7.076;2024-01-06T14:10:47;6.40;99.90
15113;DHT22;7657;50.140;7.076;2024-01-06T14:13:14;6.40;99.90
15113;DHT22;7657;50.140;7.076;2024-01-06T14:15:42;6.50;99.90
15113;DHT22;7657;50.140;7.076;2024-01-06T14:18:09;6.40;99.90
15113;DHT22;7657;50.140;7.076;2024-01-06T14:20:39;6.30;99.90
15113;DHT22;7657;50.140;7.076;2024-01-06T14:23:06;6.40;99.90
15113;DHT22;7657;50.140;7.076;2024-01-06T14:25:33;6.00;99.90
15113;DHT22;7657;50.140;7.076;2024-01-06T14:27:59;5.90;99.90
15113;DHT22;7657;50.140;7.076;2024-01-06T14:30:26;5.80;99.90
15113;DHT22;7657;50.140;7.076;2024-01-06T14:32:54;5.70;99.90
15113;DHT22;7657;50.140;7.076;2024-01-06T14:35:21;5.60;99.90
15113;DHT22;7657;50.140;7.076;2024-01-06T14:37:49;5.50;99.90
15113;DHT22;7657;50.140;7.076;2024-01-06T14:40:18;5.70;99.90
15113;DHT22;7657;50.140;7.076;2024-01-06T14:42:45;5.80;99.90
15113;DHT22;7657;50.140;7.076;2024-01-06T14:45:12;5.80;99.90
15113;DHT22;7657;50.140;7.076;2024-01-06T14:47:39;5.80;99.90
15113;DHT22;7657;50.140;7.076;2024-01-06T14:50:07;5.80;99.90
15113;DHT22;7657;50.140;7.076;2024-01-06T14:52:34;5.70;99.90
15113;DHT22;7657;50.140;7.076;2024-01-06T14:55:03;5.70;99.90
15113;DHT22;7657;50.140;7.076;2024-01-06T14:57:30;5.70;99.90
15113;DHT22;7657;50.140;7.076;2024-01-06T14:59:57;5.80;99.90
15113;DHT22;7657;50.140;7.076;2024-01-06T15:02:24;5.90;99.90
15113;DHT22;7657;50.140;7.076;2024-01-06T15:04:51;5.80;99.90
15113;DHT22;7657;50.140;7.076;2024-01-06T15:07:19;5.90;99.90
15113;DHT22;7657;50.140;7.076;2024-01-06T15:09:46;5.70;99.90
15113;DHT22;7657;50.140;7.076;2024-01-06T15:12:14;5.60;99.90
15113;DHT22;7657;50.140;7.076;2024-01-06T15:14:41;5.50;99.90
15113;DHT22;7657;50.140;7.076;2024-01-06T15:17:08;5.50;99.90
15113;DHT22;7657;50.140;7.076;2024-01-06T15:19:35;5.60;99.90
15113;DHT22;7657;50.140;7.076;2024-01-06T15:22:03;5.60;99.90
15113;DHT22;7657;50.140;7.076;2024-01-06T15:24:30;5.70;99.90
15113;DHT22;7657;50.140;7.076;2024-01-06T15:26:57;5.80;99.90
15113;DHT22;7657;50.140;7.076;2024-01-06T15:29:25;5.70;99.90
15113;DHT22;7657;50.140;7.076;2024-01-06T15:31:52;5.70;99.90
15113;DHT22;7657;50.140;7.076;2024-01-06T15:34:22;5.70;99.90
15113;DHT22;7657;50.140;7.076;2024-01-06T15:36:49;5.70;99.90
15113;DHT22;7657;50.140;7.076;2024-01-06T15:39:16;5.60;99.90
15113;DHT22;7657;50.140;7.076;2024-01-06T15:41:43;5.60;99.90
15113;DHT22;7657;50.140;7.076;2024-01-06T15:44:11;5.70;99.90
15113;DHT22;7657;50.140;7.076;2024-01-06T15:46:39;5.70;99.90
15113;DHT22;7657;50.140;7.076;2024-01-06T15:49:06;5.60;99.90
15113;DHT22;7657;50.140;7.076;2024-01-06T15:51:33;5.60;99.90
15113;DHT22;7657;50.140;7.076;2024-01-06T15:53:59;5.60;99.90
15113;DHT22;7657;50.140;7.076;2024-01-06T15:56:26;5.70;99.90
15113;DHT22;7657;50.140;7.076;2024-01-06T15:58:53;5.70;99.90
15113;DHT22;7657;50.140;7.076;2024-01-06T16:01:22;5.60;99.90
15113;DHT22;7657;50.140;7.076;2024-01-06T16:03:50;5.50;99.90